sensor_id;sensor_type;location;lat;lon;timestamp;P1;durP1;ratioP1;P2;durP2;ratioP2
8312;SDS011;4194;43.408;24.626;2022-09-03T00:02:32;2.60;;;2.10;;
8312;SDS011;4194;43.408;24.626;2022-09-03T00:05:19;2.90;;;2.50;;
8312;SDS011;4194;43.408;24.626;2022-09-03T00:11:00;2.63;;;2.40;;
8312;SDS011;4194;43.408;24.626;2022-09-03T00:13:54;3.90;;;2.63;;
8312;SDS011;4194;43.408;24.626;2022-09-03T00:19:30;5.10;;;2.40;;
8312;SDS011;4194;43.408;24.626;2022-09-03T00:22:01;3.53;;;1.83;;
8312;SDS011;4194;43.408;24.626;2022-09-03T00:24:35;2.20;;;1.97;;
8312;SDS011;4194;43.408;24.626;2022-09-03T00:27:05;2.63;;;2.30;;
8312;SDS011;4194;43.408;24.626;2022-09-03T00:32:47;2.60;;;2.40;;
8312;SDS011;4194;43.408;24.626;2022-09-03T00:35:29;2.33;;;2.23;;
8312;SDS011;4194;43.408;24.626;2022-09-03T00:38:05;2.10;;;1.87;;
8312;SDS011;4194;43.408;24.626;2022-09-03T00:40:41;2.03;;;1.93;;
8312;SDS011;4194;43.408;24.626;2022-09-03T00:49:29;3.60;;;1.90;;
8312;SDS011;4194;43.408;24.626;2022-09-03T00:58:01;3.60;;;3.30;;
8312;SDS011;4194;43.408;24.626;2022-09-03T01:00:30;3.80;;;3.50;;
8312;SDS011;4194;43.408;24.626;2022-09-03T01:11:15;4.77;;;3.90;;
8312;SDS011;4194;43.408;24.626;2022-09-03T01:16:38;5.53;;;5.03;;
8312;SDS011;4194;43.408;24.626;2022-09-03T01:19:41;6.30;;;5.70;;
8312;SDS011;4194;43.408;24.626;2022-09-03T01:37:21;10.00;;;8.60;;
8312;SDS011;4194;43.408;24.626;2022-09-03T01:59:29;9.83;;;8.10;;
8312;SDS011;4194;43.408;24.626;2022-09-03T02:02:21;10.93;;;8.50;;
8312;SDS011;4194;43.408;24.626;2022-09-03T02:05:06;10.57;;;9.40;;
8312;SDS011;4194;43.408;24.626;2022-09-03T02:07:39;13.67;;;9.53;;
8312;SDS011;4194;43.408;24.626;2022-09-03T02:10:10;13.87;;;11.17;;
8312;SDS011;4194;43.408;24.626;2022-09-03T02:12:39;14.57;;;10.70;;
8312;SDS011;4194;43.408;24.626;2022-09-03T02:15:12;19.90;;;12.10;;
8312;SDS011;4194;43.408;24.626;2022-09-03T02:17:41;12.40;;;11.13;;
8312;SDS011;4194;43.408;24.626;2022-09-03T02:20:11;13.33;;;11.43;;
8312;SDS011;4194;43.408;24.626;2022-09-03T02:22:42;16.00;;;11.50;;
8312;SDS011;4194;43.408;24.626;2022-09-03T02:25:08;14.17;;;11.63;;
8312;SDS011;4194;43.408;24.626;2022-09-03T02:27:35;18.13;;;13.07;;
8312;SDS011;4194;43.408;24.626;2022-09-03T02:30:02;16.77;;;12.67;;
8312;SDS011;4194;43.408;24.626;2022-09-03T02:32:29;15.43;;;13.00;;
8312;SDS011;4194;43.408;24.626;2022-09-03T02:34:55;19.33;;;13.20;;
8312;SDS011;4194;43.408;24.626;2022-09-03T02:37:23;17.13;;;14.13;;
8312;SDS011;4194;43.408;24.626;2022-09-03T02:39:48;19.90;;;15.73;;
8312;SDS011;4194;43.408;24.626;2022-09-03T02:42:16;18.20;;;14.30;;
8312;SDS011;4194;43.408;24.626;2022-09-03T02:44:47;18.57;;;16.43;;
8312;SDS011;4194;43.408;24.626;2022-09-03T02:47:16;18.67;;;15.53;;
8312;SDS011;4194;43.408;24.626;2022-09-03T02:49:45;17.43;;;15.30;;
8312;SDS011;4194;43.408;24.626;2022-09-03T02:52:13;19.77;;;15.60;;
8312;SDS011;4194;43.408;24.626;2022-09-03T02:54:40;20.63;;;16.40;;
8312;SDS011;4194;43.408;24.626;2022-09-03T02:57:06;18.97;;;16.17;;
8312;SDS011;4194;43.408;24.626;2022-09-03T02:59:33;19.77;;;16.10;;
8312;SDS011;4194;43.408;24.626;2022-09-03T03:01:59;19.53;;;16.13;;
8312;SDS011;4194;43.408;24.626;2022-09-03T03:04:26;17.43;;;15.53;;
8312;SDS011;4194;43.408;24.626;2022-09-03T03:06:52;19.50;;;14.83;;
8312;SDS011;4194;43.408;24.626;2022-09-03T03:09:17;17.13;;;14.97;;
8312;SDS011;4194;43.408;24.626;2022-09-03T03:11:43;18.10;;;14.17;;
8312;SDS011;4194;43.408;24.626;2022-09-03T03:14:09;17.43;;;13.77;;
8312;SDS011;4194;43.408;24.626;2022-09-03T03:16:35;16.23;;;14.40;;
8312;SDS011;4194;43.408;24.626;2022-09-03T03:19:00;17.33;;;14.30;;
8312;SDS011;4194;43.408;24.626;2022-09-03T03:21:26;16.67;;;14.17;;
8312;SDS011;4194;43.408;24.626;2022-09-03T03:23:52;19.43;;;13.77;;
8312;SDS011;4194;43.408;24.626;2022-09-03T03:26:18;19.10;;;14.73;;
8312;SDS011;4194;43.408;24.626;2022-09-03T03:28:45;20.00;;;14.77;;
8312;SDS011;4194;43.408;24.626;2022-09-03T03:31:17;20.63;;;15.00;;
8312;SDS011;4194;43.408;24.626;2022-09-03T03:33:49;21.43;;;15.90;;
8312;SDS011;4194;43.408;24.626;2022-09-03T03:36:16;22.77;;;15.93;;
8312;SDS011;4194;43.408;24.626;2022-09-03T03:38:42;19.80;;;15.57;;
8312;SDS011;4194;43.408;24.626;2022-09-03T03:41:15;20.77;;;15.23;;
8312;SDS011;4194;43.408;24.626;2022-09-03T03:43:43;20.20;;;15.95;;
8312;SDS011;4194;43.408;24.626;2022-09-03T03:46:10;20.40;;;15.73;;
8312;SDS011;4194;43.408;24.626;2022-09-03T03:48:36;19.80;;;14.93;;
8312;SDS011;4194;43.408;24.626;2022-09-03T03:51:03;19.33;;;14.10;;
8312;SDS011;4194;43.408;24.626;2022-09-03T03:53:34;23.60;;;14.93;;
8312;SDS011;4194;43.408;24.626;2022-09-03T03:56:02;19.63;;;14.00;;
8312;SDS011;4194;43.408;24.626;2022-09-03T03:58:30;18.43;;;14.23;;
8312;SDS011;4194;43.408;24.626;2022-09-03T04:01:04;15.77;;;13.33;;
8312;SDS011;4194;43.408;24.626;2022-09-03T04:03:31;18.13;;;14.97;;
8312;SDS011;4194;43.408;24.626;2022-09-03T04:05:57;15.57;;;13.27;;
8312;SDS011;4194;43.408;24.626;2022-09-03T04:08:25;15.33;;;13.13;;
8312;SDS011;4194;43.408;24.626;2022-09-03T04:10:51;17.67;;;13.40;;
8312;SDS011;4194;43.408;24.626;2022-09-03T04:13:18;18.57;;;14.13;;
8312;SDS011;4194;43.408;24.626;2022-09-03T04:15:43;18.43;;;13.50;;
8312;SDS011;4194;43.408;24.626;2022-09-03T04:18:10;16.20;;;13.73;;
8312;SDS011;4194;43.408;24.626;2022-09-03T04:20:36;16.47;;;13.87;;
8312;SDS011;4194;43.408;24.626;2022-09-03T04:23:02;15.70;;;13.97;;
8312;SDS011;4194;43.408;24.626;2022-09-03T04:25:29;15.17;;;12.80;;
8312;SDS011;4194;43.408;24.626;2022-09-03T04:27:55;20.90;;;15.33;;
8312;SDS011;4194;43.408;24.626;2022-09-03T04:30:21;15.50;;;13.20;;
8312;SDS011;4194;43.408;24.626;2022-09-03T04:32:50;16.47;;;13.40;;
8312;SDS011;4194;43.408;24.626;2022-09-03T04:35:19;16.63;;;13.30;;
8312;SDS011;4194;43.408;24.626;2022-09-03T04:37:46;16.20;;;12.80;;
8312;SDS011;4194;43.408;24.626;2022-09-03T04:40:12;17.13;;;13.17;;
8312;SDS011;4194;43.408;24.626;2022-09-03T04:42:37;16.70;;;13.43;;
8312;SDS011;4194;43.408;24.626;2022-09-03T04:45:04;20.00;;;13.10;;
8312;SDS011;4194;43.408;24.626;2022-09-03T04:47:30;18.43;;;13.67;;
8312;SDS011;4194;43.408;24.626;2022-09-03T04:49:56;18.03;;;13.03;;
8312;SDS011;4194;43.408;24.626;2022-09-03T04:52:22;18.97;;;12.33;;
8312;SDS011;4194;43.408;24.626;2022-09-03T04:54:48;17.93;;;12.53;;
8312;SDS011;4194;43.408;24.626;2022-09-03T04:57:14;15.50;;;12.90;;
8312;SDS011;4194;43.408;24.626;2022-09-03T04:59:40;18.43;;;12.73;;
8312;SDS011;4194;43.408;24.626;2022-09-03T05:02:06;17.37;;;13.13;;
8312;SDS011;4194;43.408;24.626;2022-09-03T05:04:33;19.43;;;13.83;;
8312;SDS011;4194;43.408;24.626;2022-09-03T05:07:00;17.73;;;13.43;;
8312;SDS011;4194;43.408;24.626;2022-09-03T05:09:26;20.30;;;13.60;;
8312;SDS011;4194;43.408;24.626;2022-09-03T05:11:51;22.90;;;13.57;;
8312;SDS011;4194;43.408;24.626;2022-09-03T05:14:17;19.43;;;13.63;;
8312;SDS011;4194;43.408;24.626;2022-09-03T05:16:43;20.00;;;13.67;;
8312;SDS011;4194;43.408;24.626;2022-09-03T05:19:09;19.90;;;13.63;;
8312;SDS011;4194;43.408;24.626;2022-09-03T05:21:35;19.37;;;15.00;;
8312;SDS011;4194;43.408;24.626;2022-09-03T05:24:01;18.70;;;14.43;;
8312;SDS011;4194;43.408;24.626;2022-09-03T05:26:28;22.30;;;13.47;;
8312;SDS011;4194;43.408;24.626;2022-09-03T05:28:56;16.13;;;14.23;;
8312;SDS011;4194;43.408;24.626;2022-09-03T05:31:24;15.57;;;13.50;;
8312;SDS011;4194;43.408;24.626;2022-09-03T05:33:55;19.93;;;14.27;;
8312;SDS011;4194;43.408;24.626;2022-09-03T05:36:24;16.57;;;13.30;;
8312;SDS011;4194;43.408;24.626;2022-09-03T05:38:51;19.07;;;14.20;;
8312;SDS011;4194;43.408;24.626;2022-09-03T05:41:21;22.70;;;14.07;;
8312;SDS011;4194;43.408;24.626;2022-09-03T05:43:48;19.17;;;12.60;;
8312;SDS011;4194;43.408;24.626;2022-09-03T05:46:24;15.63;;;13.67;;
8312;SDS011;4194;43.408;24.626;2022-09-03T05:48:55;18.83;;;14.93;;
8312;SDS011;4194;43.408;24.626;2022-09-03T05:51:22;24.40;;;14.60;;
8312;SDS011;4194;43.408;24.626;2022-09-03T05:53:48;19.37;;;14.60;;
8312;SDS011;4194;43.408;24.626;2022-09-03T05:56:18;23.73;;;14.90;;
8312;SDS011;4194;43.408;24.626;2022-09-03T05:58:49;16.63;;;14.57;;
8312;SDS011;4194;43.408;24.626;2022-09-03T06:01:20;16.57;;;14.10;;
8312;SDS011;4194;43.408;24.626;2022-09-03T06:03:55;19.50;;;13.83;;
8312;SDS011;4194;43.408;24.626;2022-09-03T06:06:26;17.27;;;13.20;;
8312;SDS011;4194;43.408;24.626;2022-09-03T06:09:14;14.80;;;12.93;;
8312;SDS011;4194;43.408;24.626;2022-09-03T06:11:43;16.00;;;14.30;;
8312;SDS011;4194;43.408;24.626;2022-09-03T06:14:10;19.90;;;15.17;;
8312;SDS011;4194;43.408;24.626;2022-09-03T06:16:42;22.40;;;16.50;;
8312;SDS011;4194;43.408;24.626;2022-09-03T06:19:09;22.67;;;17.77;;
8312;SDS011;4194;43.408;24.626;2022-09-03T06:21:39;27.13;;;18.60;;
8312;SDS011;4194;43.408;24.626;2022-09-03T06:24:07;23.00;;;18.00;;
8312;SDS011;4194;43.408;24.626;2022-09-03T06:26:36;27.30;;;18.47;;
8312;SDS011;4194;43.408;24.626;2022-09-03T06:29:02;24.20;;;18.73;;
8312;SDS011;4194;43.408;24.626;2022-09-03T06:31:28;27.87;;;18.93;;
8312;SDS011;4194;43.408;24.626;2022-09-03T06:33:54;24.13;;;19.60;;
8312;SDS011;4194;43.408;24.626;2022-09-03T06:36:20;23.20;;;18.40;;
8312;SDS011;4194;43.408;24.626;2022-09-03T06:38:50;29.03;;;19.27;;
8312;SDS011;4194;43.408;24.626;2022-09-03T06:41:17;23.77;;;18.37;;
8312;SDS011;4194;43.408;24.626;2022-09-03T06:43:45;25.37;;;19.70;;
8312;SDS011;4194;43.408;24.626;2022-09-03T06:46:12;25.07;;;19.80;;
8312;SDS011;4194;43.408;24.626;2022-09-03T06:48:40;25.23;;;19.80;;
8312;SDS011;4194;43.408;24.626;2022-09-03T06:51:07;28.97;;;20.27;;
8312;SDS011;4194;43.408;24.626;2022-09-03T06:53:36;25.77;;;20.50;;
8312;SDS011;4194;43.408;24.626;2022-09-03T06:56:07;28.03;;;21.13;;
8312;SDS011;4194;43.408;24.626;2022-09-03T06:58:38;22.90;;;20.07;;
8312;SDS011;4194;43.408;24.626;2022-09-03T07:03:39;32.03;;;21.57;;
8312;SDS011;4194;43.408;24.626;2022-09-03T07:06:07;28.90;;;20.87;;
8312;SDS011;4194;43.408;24.626;2022-09-03T07:08:35;23.70;;;20.40;;
8312;SDS011;4194;43.408;24.626;2022-09-03T07:11:05;26.87;;;19.93;;
8312;SDS011;4194;43.408;24.626;2022-09-03T07:13:35;24.67;;;19.43;;
8312;SDS011;4194;43.408;24.626;2022-09-03T07:16:07;24.87;;;20.10;;
8312;SDS011;4194;43.408;24.626;2022-09-03T07:18:35;22.50;;;18.37;;
8312;SDS011;4194;43.408;24.626;2022-09-03T07:21:02;20.93;;;18.73;;
8312;SDS011;4194;43.408;24.626;2022-09-03T07:23:30;20.87;;;17.50;;
8312;SDS011;4194;43.408;24.626;2022-09-03T07:25:58;22.37;;;17.30;;
8312;SDS011;4194;43.408;24.626;2022-09-03T07:28:26;22.50;;;17.33;;
8312;SDS011;4194;43.408;24.626;2022-09-03T07:30:53;21.23;;;16.57;;
8312;SDS011;4194;43.408;24.626;2022-09-03T07:33:24;19.23;;;17.13;;
8312;SDS011;4194;43.408;24.626;2022-09-03T07:35:50;18.30;;;16.27;;
8312;SDS011;4194;43.408;24.626;2022-09-03T07:38:19;18.30;;;16.37;;
8312;SDS011;4194;43.408;24.626;2022-09-03T07:40:47;17.83;;;15.87;;
8312;SDS011;4194;43.408;24.626;2022-09-03T07:43:13;19.73;;;16.20;;
8312;SDS011;4194;43.408;24.626;2022-09-03T07:48:15;19.97;;;16.03;;
8312;SDS011;4194;43.408;24.626;2022-09-03T07:50:41;17.37;;;15.67;;
8312;SDS011;4194;43.408;24.626;2022-09-03T07:53:08;19.90;;;17.87;;
8312;SDS011;4194;43.408;24.626;2022-09-03T07:55:34;17.87;;;16.07;;
8312;SDS011;4194;43.408;24.626;2022-09-03T07:58:00;17.17;;;15.47;;
8312;SDS011;4194;43.408;24.626;2022-09-03T08:00:26;16.30;;;14.70;;
8312;SDS011;4194;43.408;24.626;2022-09-03T08:02:51;16.43;;;14.73;;
8312;SDS011;4194;43.408;24.626;2022-09-03T08:05:18;15.93;;;13.93;;
8312;SDS011;4194;43.408;24.626;2022-09-03T08:07:45;19.10;;;14.60;;
8312;SDS011;4194;43.408;24.626;2022-09-03T08:10:12;15.67;;;14.17;;
8312;SDS011;4194;43.408;24.626;2022-09-03T08:12:39;17.10;;;15.40;;
8312;SDS011;4194;43.408;24.626;2022-09-03T08:15:05;17.10;;;15.30;;
8312;SDS011;4194;43.408;24.626;2022-09-03T08:17:32;18.63;;;14.43;;
8312;SDS011;4194;43.408;24.626;2022-09-03T08:19:58;16.73;;;13.17;;
8312;SDS011;4194;43.408;24.626;2022-09-03T08:22:24;17.37;;;13.50;;
8312;SDS011;4194;43.408;24.626;2022-09-03T08:24:50;14.60;;;13.10;;
8312;SDS011;4194;43.408;24.626;2022-09-03T08:27:19;14.33;;;12.93;;
8312;SDS011;4194;43.408;24.626;2022-09-03T08:29:50;14.37;;;13.03;;
8312;SDS011;4194;43.408;24.626;2022-09-03T08:32:15;14.20;;;12.10;;
8312;SDS011;4194;43.408;24.626;2022-09-03T08:34:41;13.77;;;11.67;;
8312;SDS011;4194;43.408;24.626;2022-09-03T08:37:07;14.10;;;10.63;;
8312;SDS011;4194;43.408;24.626;2022-09-03T08:39:34;10.27;;;9.17;;
8312;SDS011;4194;43.408;24.626;2022-09-03T08:42:12;10.70;;;9.60;;
8312;SDS011;4194;43.408;24.626;2022-09-03T08:44:45;11.63;;;10.50;;
8312;SDS011;4194;43.408;24.626;2022-09-03T08:55:52;15.10;;;13.47;;
8312;SDS011;4194;43.408;24.626;2022-09-03T08:58:29;16.97;;;14.07;;
8312;SDS011;4194;43.408;24.626;2022-09-03T09:20:48;19.37;;;13.90;;
8312;SDS011;4194;43.408;24.626;2022-09-03T09:23:56;17.23;;;14.67;;
8312;SDS011;4194;43.408;24.626;2022-09-03T09:26:16;16.35;;;14.65;;
8312;SDS011;4194;43.408;24.626;2022-09-03T09:28:45;15.33;;;13.73;;
8312;SDS011;4194;43.408;24.626;2022-09-03T09:31:13;16.00;;;14.40;;
8312;SDS011;4194;43.408;24.626;2022-09-03T09:33:42;18.53;;;14.80;;
8312;SDS011;4194;43.408;24.626;2022-09-03T09:36:10;17.93;;;14.80;;
8312;SDS011;4194;43.408;24.626;2022-09-03T09:38:40;16.63;;;14.93;;
8312;SDS011;4194;43.408;24.626;2022-09-03T09:41:11;20.97;;;18.13;;
8312;SDS011;4194;43.408;24.626;2022-09-03T09:43:38;18.37;;;16.47;;
8312;SDS011;4194;43.408;24.626;2022-09-03T09:46:08;18.90;;;15.73;;
8312;SDS011;4194;43.408;24.626;2022-09-03T09:48:53;15.67;;;13.53;;
8312;SDS011;4194;43.408;24.626;2022-09-03T09:51:22;15.00;;;13.40;;
8312;SDS011;4194;43.408;24.626;2022-09-03T09:56:35;14.77;;;13.07;;
8312;SDS011;4194;43.408;24.626;2022-09-03T09:59:05;12.03;;;10.40;;
8312;SDS011;4194;43.408;24.626;2022-09-03T10:01:32;12.90;;;10.87;;
8312;SDS011;4194;43.408;24.626;2022-09-03T10:06:53;12.00;;;10.80;;
8312;SDS011;4194;43.408;24.626;2022-09-03T10:14:38;13.93;;;12.40;;
8312;SDS011;4194;43.408;24.626;2022-09-03T10:17:11;12.97;;;11.73;;
8312;SDS011;4194;43.408;24.626;2022-09-03T10:25:33;15.73;;;13.40;;
8312;SDS011;4194;43.408;24.626;2022-09-03T10:28:03;13.70;;;11.47;;
8312;SDS011;4194;43.408;24.626;2022-09-03T10:30:31;11.43;;;10.00;;
8312;SDS011;4194;43.408;24.626;2022-09-03T10:33:18;12.20;;;10.30;;
8312;SDS011;4194;43.408;24.626;2022-09-03T10:35:57;14.77;;;10.77;;
8312;SDS011;4194;43.408;24.626;2022-09-03T10:38:40;12.90;;;9.03;;
8312;SDS011;4194;43.408;24.626;2022-09-03T10:41:18;11.50;;;9.47;;
8312;SDS011;4194;43.408;24.626;2022-09-03T10:46:45;13.87;;;11.03;;
8312;SDS011;4194;43.408;24.626;2022-09-03T10:49:36;10.13;;;9.10;;
8312;SDS011;4194;43.408;24.626;2022-09-03T10:57:40;10.47;;;9.13;;
8312;SDS011;4194;43.408;24.626;2022-09-03T11:00:15;12.30;;;9.83;;
8312;SDS011;4194;43.408;24.626;2022-09-03T11:05:32;11.60;;;10.27;;
8312;SDS011;4194;43.408;24.626;2022-09-03T11:08:10;14.67;;;9.33;;
8312;SDS011;4194;43.408;24.626;2022-09-03T11:10:40;12.37;;;10.70;;
8312;SDS011;4194;43.408;24.626;2022-09-03T11:13:19;12.03;;;10.83;;
8312;SDS011;4194;43.408;24.626;2022-09-03T11:16:14;13.50;;;11.87;;
8312;SDS011;4194;43.408;24.626;2022-09-03T11:18:45;11.60;;;9.67;;
8312;SDS011;4194;43.408;24.626;2022-09-03T11:21:19;13.50;;;10.70;;
8312;SDS011;4194;43.408;24.626;2022-09-03T11:23:55;12.97;;;10.93;;
8312;SDS011;4194;43.408;24.626;2022-09-03T11:26:36;14.30;;;11.97;;
8312;SDS011;4194;43.408;24.626;2022-09-03T11:31:56;13.70;;;11.10;;
8312;SDS011;4194;43.408;24.626;2022-09-03T11:34:32;15.63;;;11.10;;
8312;SDS011;4194;43.408;24.626;2022-09-03T11:40:13;16.40;;;11.33;;
8312;SDS011;4194;43.408;24.626;2022-09-03T11:42:42;13.30;;;11.73;;
8312;SDS011;4194;43.408;24.626;2022-09-03T11:45:13;19.80;;;10.87;;
8312;SDS011;4194;43.408;24.626;2022-09-03T11:47:50;12.60;;;11.30;;
8312;SDS011;4194;43.408;24.626;2022-09-03T11:52:51;12.33;;;10.43;;
8312;SDS011;4194;43.408;24.626;2022-09-03T11:55:52;11.70;;;9.97;;
8312;SDS011;4194;43.408;24.626;2022-09-03T12:01:20;12.70;;;9.47;;
8312;SDS011;4194;43.408;24.626;2022-09-03T12:03:48;9.40;;;8.40;;
8312;SDS011;4194;43.408;24.626;2022-09-03T12:18:07;7.37;;;6.57;;
8312;SDS011;4194;43.408;24.626;2022-09-03T12:21:06;6.30;;;5.70;;
8312;SDS011;4194;43.408;24.626;2022-09-03T12:23:43;6.70;;;5.30;;
8312;SDS011;4194;43.408;24.626;2022-09-03T12:26:16;8.50;;;6.63;;
8312;SDS011;4194;43.408;24.626;2022-09-03T12:28:50;7.87;;;6.90;;
8312;SDS011;4194;43.408;24.626;2022-09-03T12:33:59;9.50;;;7.90;;
8312;SDS011;4194;43.408;24.626;2022-09-03T12:36:39;8.97;;;8.07;;
8312;SDS011;4194;43.408;24.626;2022-09-03T12:39:14;9.00;;;7.90;;
8312;SDS011;4194;43.408;24.626;2022-09-03T12:42:14;11.33;;;8.40;;
8312;SDS011;4194;43.408;24.626;2022-09-03T12:49:38;7.33;;;6.37;;
8312;SDS011;4194;43.408;24.626;2022-09-03T12:52:27;8.40;;;6.47;;
8312;SDS011;4194;43.408;24.626;2022-09-03T12:55:09;6.97;;;6.27;;
8312;SDS011;4194;43.408;24.626;2022-09-03T13:00:33;7.77;;;6.93;;
8312;SDS011;4194;43.408;24.626;2022-09-03T13:05:42;8.10;;;7.10;;
8312;SDS011;4194;43.408;24.626;2022-09-03T13:08:21;9.03;;;8.00;;
8312;SDS011;4194;43.408;24.626;2022-09-03T13:10:50;10.13;;;8.97;;
8312;SDS011;4194;43.408;24.626;2022-09-03T13:18:30;11.27;;;9.17;;
8312;SDS011;4194;43.408;24.626;2022-09-03T13:21:28;12.70;;;9.77;;
8312;SDS011;4194;43.408;24.626;2022-09-03T13:27:22;9.40;;;8.40;;
8312;SDS011;4194;43.408;24.626;2022-09-03T13:30:09;10.27;;;8.90;;
8312;SDS011;4194;43.408;24.626;2022-09-03T13:35:08;11.40;;;8.27;;
8312;SDS011;4194;43.408;24.626;2022-09-03T13:37:39;11.60;;;8.07;;
8312;SDS011;4194;43.408;24.626;2022-09-03T13:42:55;10.03;;;9.00;;
8312;SDS011;4194;43.408;24.626;2022-09-03T13:47:59;11.90;;;8.53;;
8312;SDS011;4194;43.408;24.626;2022-09-03T13:50:52;11.70;;;9.37;;
8312;SDS011;4194;43.408;24.626;2022-09-03T13:56:28;9.63;;;8.70;;
8312;SDS011;4194;43.408;24.626;2022-09-03T13:59:30;9.17;;;8.17;;
8312;SDS011;4194;43.408;24.626;2022-09-03T14:19:35;9.20;;;8.20;;
8312;SDS011;4194;43.408;24.626;2022-09-03T14:22:20;10.17;;;8.73;;
8312;SDS011;4194;43.408;24.626;2022-09-03T14:24:57;8.93;;;8.03;;
8312;SDS011;4194;43.408;24.626;2022-09-03T14:27:30;9.00;;;8.10;;
8312;SDS011;4194;43.408;24.626;2022-09-03T14:29:57;9.27;;;7.93;;
8312;SDS011;4194;43.408;24.626;2022-09-03T14:32:29;13.93;;;9.67;;
8312;SDS011;4194;43.408;24.626;2022-09-03T14:50:13;6.97;;;6.17;;
8312;SDS011;4194;43.408;24.626;2022-09-03T14:52:50;8.07;;;6.47;;
8312;SDS011;4194;43.408;24.626;2022-09-03T15:06:27;7.43;;;6.63;;
8312;SDS011;4194;43.408;24.626;2022-09-03T15:11:30;9.17;;;5.93;;
8312;SDS011;4194;43.408;24.626;2022-09-03T15:30:48;6.93;;;5.37;;
8312;SDS011;4194;43.408;24.626;2022-09-03T15:33:34;7.47;;;5.50;;
8312;SDS011;4194;43.408;24.626;2022-09-03T15:36:18;7.20;;;5.53;;
8312;SDS011;4194;43.408;24.626;2022-09-03T15:41:36;9.20;;;6.00;;
8312;SDS011;4194;43.408;24.626;2022-09-03T15:44:15;5.93;;;5.23;;
8312;SDS011;4194;43.408;24.626;2022-09-03T15:49:18;6.97;;;6.13;;
8312;SDS011;4194;43.408;24.626;2022-09-03T15:52:02;6.80;;;6.07;;
8312;SDS011;4194;43.408;24.626;2022-09-03T15:57:53;10.03;;;5.77;;
8312;SDS011;4194;43.408;24.626;2022-09-03T16:00:44;8.17;;;6.67;;
8312;SDS011;4194;43.408;24.626;2022-09-03T16:03:36;7.27;;;6.37;;
8312;SDS011;4194;43.408;24.626;2022-09-03T16:06:23;9.07;;;6.97;;
8312;SDS011;4194;43.408;24.626;2022-09-03T16:09:04;9.67;;;7.13;;
8312;SDS011;4194;43.408;24.626;2022-09-03T16:11:55;9.93;;;6.93;;
8312;SDS011;4194;43.408;24.626;2022-09-03T16:17:37;7.87;;;6.73;;
8312;SDS011;4194;43.408;24.626;2022-09-03T16:20:19;7.50;;;6.80;;
8312;SDS011;4194;43.408;24.626;2022-09-03T16:29:06;8.53;;;7.67;;
8312;SDS011;4194;43.408;24.626;2022-09-03T16:51:21;11.80;;;9.40;;
8312;SDS011;4194;43.408;24.626;2022-09-03T16:53:57;10.07;;;9.03;;
8312;SDS011;4194;43.408;24.626;2022-09-03T17:01:51;13.53;;;9.50;;
8312;SDS011;4194;43.408;24.626;2022-09-03T17:07:31;11.73;;;9.67;;
8312;SDS011;4194;43.408;24.626;2022-09-03T17:18:26;13.13;;;10.80;;
8312;SDS011;4194;43.408;24.626;2022-09-03T17:26:42;13.57;;;11.33;;
8312;SDS011;4194;43.408;24.626;2022-09-03T17:29:34;14.17;;;11.03;;
8312;SDS011;4194;43.408;24.626;2022-09-03T17:38:29;14.07;;;10.93;;
8312;SDS011;4194;43.408;24.626;2022-09-03T17:44:13;13.70;;;11.50;;
8312;SDS011;4194;43.408;24.626;2022-09-03T17:49:28;15.43;;;11.70;;
8312;SDS011;4194;43.408;24.626;2022-09-03T17:54:52;16.93;;;12.90;;
8312;SDS011;4194;43.408;24.626;2022-09-03T17:57:25;16.10;;;13.53;;
8312;SDS011;4194;43.408;24.626;2022-09-03T18:07:45;17.67;;;14.10;;
8312;SDS011;4194;43.408;24.626;2022-09-03T18:10:22;15.33;;;12.57;;
8312;SDS011;4194;43.408;24.626;2022-09-03T18:15:53;18.97;;;14.27;;
8312;SDS011;4194;43.408;24.626;2022-09-03T18:18:29;15.63;;;13.37;;
8312;SDS011;4194;43.408;24.626;2022-09-03T18:20:56;18.17;;;13.93;;
8312;SDS011;4194;43.408;24.626;2022-09-03T18:27:06;16.07;;;13.73;;
8312;SDS011;4194;43.408;24.626;2022-09-03T18:30:11;14.63;;;12.97;;
8312;SDS011;4194;43.408;24.626;2022-09-03T18:32:57;17.47;;;13.40;;
8312;SDS011;4194;43.408;24.626;2022-09-03T18:35:42;17.10;;;12.97;;
8312;SDS011;4194;43.408;24.626;2022-09-03T18:38:32;15.97;;;13.40;;
8312;SDS011;4194;43.408;24.626;2022-09-03T18:50:19;15.33;;;13.13;;
8312;SDS011;4194;43.408;24.626;2022-09-03T18:56:42;14.93;;;12.63;;
8312;SDS011;4194;43.408;24.626;2022-09-03T19:11:30;13.07;;;11.67;;
8312;SDS011;4194;43.408;24.626;2022-09-03T19:14:36;12.93;;;11.53;;
8312;SDS011;4194;43.408;24.626;2022-09-03T19:20:17;14.53;;;11.70;;
8312;SDS011;4194;43.408;24.626;2022-09-03T19:23:23;17.10;;;11.47;;
8312;SDS011;4194;43.408;24.626;2022-09-03T19:26:18;16.13;;;11.30;;
8312;SDS011;4194;43.408;24.626;2022-09-03T19:29:15;12.33;;;10.77;;
8312;SDS011;4194;43.408;24.626;2022-09-03T19:32:29;14.90;;;11.20;;
8312;SDS011;4194;43.408;24.626;2022-09-03T19:45:02;21.27;;;11.00;;
8312;SDS011;4194;43.408;24.626;2022-09-03T19:55:05;16.10;;;11.33;;
8312;SDS011;4194;43.408;24.626;2022-09-03T19:57:52;15.30;;;12.70;;
8312;SDS011;4194;43.408;24.626;2022-09-03T20:00:40;16.97;;;12.30;;
8312;SDS011;4194;43.408;24.626;2022-09-03T20:03:25;17.27;;;12.97;;
8312;SDS011;4194;43.408;24.626;2022-09-03T20:06:10;16.17;;;12.60;;
8312;SDS011;4194;43.408;24.626;2022-09-03T20:09:01;18.80;;;13.37;;
8312;SDS011;4194;43.408;24.626;2022-09-03T20:11:50;16.77;;;13.37;;
8312;SDS011;4194;43.408;24.626;2022-09-03T20:14:20;20.23;;;13.07;;
8312;SDS011;4194;43.408;24.626;2022-09-03T20:19:48;16.90;;;13.73;;
8312;SDS011;4194;43.408;24.626;2022-09-03T20:22:32;23.27;;;14.13;;
8312;SDS011;4194;43.408;24.626;2022-09-03T20:28:15;21.03;;;14.93;;
8312;SDS011;4194;43.408;24.626;2022-09-03T20:41:44;22.47;;;15.57;;
8312;SDS011;4194;43.408;24.626;2022-09-03T20:55:40;21.13;;;16.33;;
8312;SDS011;4194;43.408;24.626;2022-09-03T20:58:10;21.63;;;15.80;;
8312;SDS011;4194;43.408;24.626;2022-09-03T21:03:28;19.83;;;16.47;;
8312;SDS011;4194;43.408;24.626;2022-09-03T21:09:11;20.67;;;16.20;;
8312;SDS011;4194;43.408;24.626;2022-09-03T21:11:40;21.63;;;15.87;;
8312;SDS011;4194;43.408;24.626;2022-09-03T21:17:03;20.57;;;16.53;;
8312;SDS011;4194;43.408;24.626;2022-09-03T21:25:19;22.37;;;15.47;;
8312;SDS011;4194;43.408;24.626;2022-09-03T21:27:54;20.37;;;15.23;;
8312;SDS011;4194;43.408;24.626;2022-09-03T21:30:25;22.50;;;16.20;;
8312;SDS011;4194;43.408;24.626;2022-09-03T21:36:13;20.03;;;15.90;;
8312;SDS011;4194;43.408;24.626;2022-09-03T21:38:45;19.63;;;14.90;;
8312;SDS011;4194;43.408;24.626;2022-09-03T21:41:20;21.02;;;16.38;;
8312;SDS011;4194;43.408;24.626;2022-09-03T21:43:57;21.00;;;15.83;;
8312;SDS011;4194;43.408;24.626;2022-09-03T21:46:30;20.13;;;15.63;;
8312;SDS011;4194;43.408;24.626;2022-09-03T21:49:09;19.27;;;16.50;;
8312;SDS011;4194;43.408;24.626;2022-09-03T21:51:42;21.50;;;15.87;;
8312;SDS011;4194;43.408;24.626;2022-09-03T21:54:18;23.63;;;15.77;;
8312;SDS011;4194;43.408;24.626;2022-09-03T21:59:54;19.70;;;14.80;;
8312;SDS011;4194;43.408;24.626;2022-09-03T22:04:49;19.90;;;15.50;;
8312;SDS011;4194;43.408;24.626;2022-09-03T22:10:21;18.07;;;14.47;;
8312;SDS011;4194;43.408;24.626;2022-09-03T22:15:45;17.43;;;14.37;;
8312;SDS011;4194;43.408;24.626;2022-09-03T22:18:28;19.37;;;14.57;;
8312;SDS011;4194;43.408;24.626;2022-09-03T22:21:04;16.53;;;14.17;;
8312;SDS011;4194;43.408;24.626;2022-09-03T22:23:42;18.10;;;13.73;;
8312;SDS011;4194;43.408;24.626;2022-09-03T22:35:16;16.00;;;13.30;;
8312;SDS011;4194;43.408;24.626;2022-09-03T22:37:58;16.03;;;14.03;;
8312;SDS011;4194;43.408;24.626;2022-09-03T22:40:47;16.33;;;14.23;;
8312;SDS011;4194;43.408;24.626;2022-09-03T22:43:48;18.17;;;14.40;;
8312;SDS011;4194;43.408;24.626;2022-09-03T22:46:18;17.27;;;13.70;;